sensor_id;sensor_type;location;lat;lon;timestamp;pressure;altitude;pressure_sealevel;temperature;humidity
73280;BME280;61511;49.286;9.700;2022-07-01T00:02:16;97174.50;;;14.02;94.01
73280;BME280;61511;49.286;9.700;2022-07-01T00:04:50;97165.88;;;14.00;93.85
73280;BME280;61511;49.286;9.700;2022-07-01T00:07:20;97157.25;;;13.98;93.40
73280;BME280;61511;49.286;9.700;2022-07-01T00:09:50;97152.63;;;13.95;93.62
73280;BME280;61511;49.286;9.700;2022-07-01T00:12:21;97132.16;;;13.84;93.09
73280;BME280;61511;49.286;9.700;2022-07-01T00:14:53;97146.47;;;13.82;94.80
73280;BME280;61511;49.286;9.700;2022-07-01T00:17:27;97142.94;;;13.73;93.90
73280;BME280;61511;49.286;9.700;2022-07-01T00:19:56;97137.59;;;13.69;93.98
73280;BME280;61511;49.286;9.700;2022-07-01T00:22:25;97116.78;;;13.64;93.99
73280;BME280;61511;49.286;9.700;2022-07-01T00:24:57;97124.81;;;13.53;94.65
73280;BME280;61511;49.286;9.700;2022-07-01T00:27:31;97122.81;;;13.54;94.88
73280;BME280;61511;49.286;9.700;2022-07-01T00:30:03;97127.28;;;13.51;94.75
73280;BME280;61511;49.286;9.700;2022-07-01T00:32:38;97147.19;;;13.41;94.04
73280;BME280;61511;49.286;9.700;2022-07-01T00:35:10;97174.13;;;13.40;94.30
73280;BME280;61511;49.286;9.700;2022-07-01T00:37:39;97197.41;;;13.43;94.92
73280;BME280;61511;49.286;9.700;2022-07-01T00:40:10;97210.47;;;13.42;93.86
73280;BME280;61511;49.286;9.700;2022-07-01T00:42:40;97218.66;;;13.55;95.41
73280;BME280;61511;49.286;9.700;2022-07-01T00:45:10;97216.97;;;13.57;94.76
73280;BME280;61511;49.286;9.700;2022-07-01T00:47:47;97225.91;;;13.52;94.23
73280;BME280;61511;49.286;9.700;2022-07-01T00:50:18;97230.66;;;13.52;94.55
73280;BME280;61511;49.286;9.700;2022-07-01T00:52:48;97228.97;;;13.54;94.62
73280;BME280;61511;49.286;9.700;2022-07-01T00:55:18;97229.28;;;13.47;94.68
73280;BME280;61511;49.286;9.700;2022-07-01T00:57:50;97235.75;;;13.44;94.53
73280;BME280;61511;49.286;9.700;2022-07-01T01:00:22;97240.22;;;13.51;95.30
73280;BME280;61511;49.286;9.700;2022-07-01T01:02:54;97240.53;;;13.53;94.11
73280;BME280;61511;49.286;9.700;2022-07-01T01:05:25;97238.50;;;13.44;95.28
73280;BME280;61511;49.286;9.700;2022-07-01T01:07:55;97252.38;;;13.53;95.22
73280;BME280;61511;49.286;9.700;2022-07-01T01:10:27;97266.88;;;13.48;93.88
73280;BME280;61511;49.286;9.700;2022-07-01T01:13:01;97284.44;;;13.36;93.63
73280;BME280;61511;49.286;9.700;2022-07-01T01:15:32;97292.59;;;13.40;94.98
73280;BME280;61511;49.286;9.700;2022-07-01T01:18:13;97295.69;;;13.51;95.49
73280;BME280;61511;49.286;9.700;2022-07-01T01:20:46;97270.25;;;13.34;93.45
73280;BME280;61511;49.286;9.700;2022-07-01T01:23:16;97271.78;;;13.44;94.91
73280;BME280;61511;49.286;9.700;2022-07-01T01:25:46;97281.81;;;13.42;93.79
73280;BME280;61511;49.286;9.700;2022-07-01T01:28:14;97285.22;;;13.46;93.45
73280;BME280;61511;49.286;9.700;2022-07-01T01:30:43;97275.16;;;13.30;93.41
73280;BME280;61511;49.286;9.700;2022-07-01T01:33:11;97279.63;;;13.37;95.05
73280;BME280;61511;49.286;9.700;2022-07-01T01:35:39;97270.41;;;13.31;94.35
73280;BME280;61511;49.286;9.700;2022-07-01T01:38:08;97259.31;;;13.40;95.85
73280;BME280;61511;49.286;9.700;2022-07-01T01:40:36;97246.53;;;13.33;93.60
73280;BME280;61511;49.286;9.700;2022-07-01T01:43:04;97242.97;;;13.33;94.47
73280;BME280;61511;49.286;9.700;2022-07-01T01:45:32;97229.91;;;13.33;94.27
73280;BME280;61511;49.286;9.700;2022-07-01T01:48:01;97220.97;;;13.29;93.90
73280;BME280;61511;49.286;9.700;2022-07-01T01:50:29;97199.22;;;13.28;95.26
73280;BME280;61511;49.286;9.700;2022-07-01T01:52:57;97178.91;;;13.40;95.50
73280;BME280;61511;49.286;9.700;2022-07-01T01:55:27;97175.22;;;13.34;94.08
73280;BME280;61511;49.286;9.700;2022-07-01T01:57:54;97182.59;;;13.28;94.79
73280;BME280;61511;49.286;9.700;2022-07-01T02:00:23;97184.94;;;13.29;94.92
73280;BME280;61511;49.286;9.700;2022-07-01T02:02:51;97181.84;;;13.27;94.45
73280;BME280;61511;49.286;9.700;2022-07-01T02:05:19;97189.22;;;13.30;94.67
73280;BME280;61511;49.286;9.700;2022-07-01T02:07:48;97173.34;;;13.40;94.55
73280;BME280;61511;49.286;9.700;2022-07-01T02:10:16;97168.59;;;13.31;93.07
73280;BME280;61511;49.286;9.700;2022-07-01T02:12:45;97159.97;;;13.38;94.25
73280;BME280;61511;49.286;9.700;2022-07-01T02:15:13;97161.34;;;13.34;93.55
73280;BME280;61511;49.286;9.700;2022-07-01T02:17:42;97154.13;;;13.27;94.22
73280;BME280;61511;49.286;9.700;2022-07-01T02:20:10;97154.75;;;13.22;93.52
73280;BME280;61511;49.286;9.700;2022-07-01T02:22:41;97159.50;;;13.22;94.26
73280;BME280;61511;49.286;9.700;2022-07-01T02:25:09;97165.97;;;13.28;93.68
73280;BME280;61511;49.286;9.700;2022-07-01T02:27:38;97165.22;;;13.27;93.86
73280;BME280;61511;49.286;9.700;2022-07-01T02:30:07;97138.88;;;13.32;93.73
73280;BME280;61511;49.286;9.700;2022-07-01T02:32:35;97130.09;;;13.33;94.31
73280;BME280;61511;49.286;9.700;2022-07-01T02:35:07;97131.00;;;13.30;93.04
73280;BME280;61511;49.286;9.700;2022-07-01T02:37:35;97164.44;;;13.27;93.79
73280;BME280;61511;49.286;9.700;2022-07-01T02:40:04;97166.44;;;13.17;94.21
73280;BME280;61511;49.286;9.700;2022-07-01T02:42:32;97163.66;;;13.17;93.95
73280;BME280;61511;49.286;9.700;2022-07-01T02:45:05;97179.22;;;13.15;93.64
73280;BME280;61511;49.286;9.700;2022-07-01T02:47:36;97173.84;;;13.20;94.08
73280;BME280;61511;49.286;9.700;2022-07-01T02:50:08;97164.88;;;13.16;94.19
73280;BME280;61511;49.286;9.700;2022-07-01T02:52:38;97176.88;;;13.13;94.27
73280;BME280;61511;49.286;9.700;2022-07-01T02:55:07;97173.06;;;13.20;95.14
73280;BME280;61511;49.286;9.700;2022-07-01T02:57:36;97184.16;;;13.20;94.05
73280;BME280;61511;49.286;9.700;2022-07-01T03:00:08;97173.50;;;13.18;94.04
73280;BME280;61511;49.286;9.700;2022-07-01T03:02:37;97185.06;;;13.17;93.97
73280;BME280;61511;49.286;9.700;2022-07-01T03:05:07;97191.69;;;13.19;93.98
73280;BME280;61511;49.286;9.700;2022-07-01T03:07:36;97196.00;;;13.20;94.38
73280;BME280;61511;49.286;9.700;2022-07-01T03:10:05;97203.84;;;13.22;94.46
73280;BME280;61511;49.286;9.700;2022-07-01T03:12:33;97206.94;;;13.24;93.25
73280;BME280;61511;49.286;9.700;2022-07-01T03:15:02;97201.69;;;13.26;94.41
73280;BME280;61511;49.286;9.700;2022-07-01T03:17:33;97208.50;;;13.34;94.08
73280;BME280;61511;49.286;9.700;2022-07-01T03:20:07;97220.81;;;13.33;92.65
73280;BME280;61511;49.286;9.700;2022-07-01T03:22:37;97245.91;;;13.20;91.91
73280;BME280;61511;49.286;9.700;2022-07-01T03:25:06;97255.44;;;13.28;93.70
73280;BME280;61511;49.286;9.700;2022-07-01T03:27:34;97250.81;;;13.25;92.39
73280;BME280;61511;49.286;9.700;2022-07-01T03:30:05;97244.97;;;13.32;93.51
73280;BME280;61511;49.286;9.700;2022-07-01T03:32:34;97249.13;;;13.37;93.36
73280;BME280;61511;49.286;9.700;2022-07-01T03:35:02;97249.78;;;13.32;92.26
73280;BME280;61511;49.286;9.700;2022-07-01T03:37:52;97256.69;;;13.27;91.94
73280;BME280;61511;49.286;9.700;2022-07-01T03:40:20;97258.69;;;13.27;93.18
73280;BME280;61511;49.286;9.700;2022-07-01T03:42:48;97246.22;;;13.31;93.13
73280;BME280;61511;49.286;9.700;2022-07-01T03:45:16;97257.75;;;13.30;93.45
73280;BME280;61511;49.286;9.700;2022-07-01T03:47:45;97267.00;;;13.27;92.04
73280;BME280;61511;49.286;9.700;2022-07-01T03:50:14;97276.84;;;13.28;93.31
73280;BME280;61511;49.286;9.700;2022-07-01T03:52:42;97285.81;;;13.32;93.76
73280;BME280;61511;49.286;9.700;2022-07-01T03:55:13;97287.19;;;13.36;93.93
73280;BME280;61511;49.286;9.700;2022-07-01T03:57:40;97299.03;;;13.28;92.15
73280;BME280;61511;49.286;9.700;2022-07-01T04:00:09;97310.09;;;13.19;92.47
73280;BME280;61511;49.286;9.700;2022-07-01T04:02:42;97307.81;;;13.17;91.80
73280;BME280;61511;49.286;9.700;2022-07-01T04:05:10;97307.50;;;13.15;92.58
73280;BME280;61511;49.286;9.700;2022-07-01T04:07:38;97307.63;;;13.12;92.51
73280;BME280;61511;49.286;9.700;2022-07-01T04:10:07;97319.19;;;13.19;92.71
73280;BME280;61511;49.286;9.700;2022-07-01T04:12:36;97318.88;;;13.08;91.50
73280;BME280;61511;49.286;9.700;2022-07-01T04:15:05;97332.88;;;13.14;92.52
73280;BME280;61511;49.286;9.700;2022-07-01T04:17:33;97332.75;;;13.17;92.09
73280;BME280;61511;49.286;9.700;2022-07-01T04:20:01;97337.19;;;13.15;92.35
73280;BME280;61511;49.286;9.700;2022-07-01T04:22:29;97352.47;;;13.19;92.06
73280;BME280;61511;49.286;9.700;2022-07-01T04:24:59;97359.09;;;13.22;92.32
73280;BME280;61511;49.286;9.700;2022-07-01T04:27:30;97361.88;;;13.22;91.65
73280;BME280;61511;49.286;9.700;2022-07-01T04:29:59;97361.88;;;13.22;91.07
73280;BME280;61511;49.286;9.700;2022-07-01T04:32:29;97361.25;;;13.18;91.47
73280;BME280;61511;49.286;9.700;2022-07-01T04:34:58;97372.00;;;13.16;92.03
73280;BME280;61511;49.286;9.700;2022-07-01T04:37:26;97377.81;;;13.09;91.24
73280;BME280;61511;49.286;9.700;2022-07-01T04:39:54;97365.28;;;13.04;91.62
73280;BME280;61511;49.286;9.700;2022-07-01T04:42:21;97367.81;;;13.11;92.47
73280;BME280;61511;49.286;9.700;2022-07-01T04:44:48;97385.09;;;13.15;91.65
73280;BME280;61511;49.286;9.700;2022-07-01T04:47:18;97384.31;;;13.15;93.01
73280;BME280;61511;49.286;9.700;2022-07-01T04:49:47;97374.00;;;13.15;91.70
73280;BME280;61511;49.286;9.700;2022-07-01T04:52:15;97392.31;;;13.13;91.33
73280;BME280;61511;49.286;9.700;2022-07-01T04:54:43;97399.28;;;13.17;91.41
73280;BME280;61511;49.286;9.700;2022-07-01T04:57:11;97404.34;;;13.19;91.30
73280;BME280;61511;49.286;9.700;2022-07-01T04:59:39;97409.25;;;13.15;90.52
73280;BME280;61511;49.286;9.700;2022-07-01T05:02:07;97420.88;;;13.01;91.19
73280;BME280;61511;49.286;9.700;2022-07-01T05:04:39;97413.94;;;12.96;91.55
73280;BME280;61511;49.286;9.700;2022-07-01T05:07:08;97414.81;;;12.93;92.37
73280;BME280;61511;49.286;9.700;2022-07-01T05:09:55;97422.25;;;12.96;92.43
73280;BME280;61511;49.286;9.700;2022-07-01T05:12:27;97407.78;;;13.01;92.25
73280;BME280;61511;49.286;9.700;2022-07-01T05:14:55;97415.19;;;13.04;92.28
73280;BME280;61511;49.286;9.700;2022-07-01T05:17:23;97414.50;;;13.13;92.52
73280;BME280;61511;49.286;9.700;2022-07-01T05:20:12;97412.16;;;13.11;91.44
73280;BME280;61511;49.286;9.700;2022-07-01T05:22:58;97416.34;;;13.16;92.69
73280;BME280;61511;49.286;9.700;2022-07-01T05:25:26;97391.09;;;13.23;91.86
73280;BME280;61511;49.286;9.700;2022-07-01T05:27:53;97397.00;;;13.25;91.32
73280;BME280;61511;49.286;9.700;2022-07-01T05:30:22;97388.06;;;13.30;91.80
73280;BME280;61511;49.286;9.700;2022-07-01T05:32:50;97383.00;;;13.37;92.43
73280;BME280;61511;49.286;9.700;2022-07-01T05:35:19;97398.41;;;13.38;90.97
73280;BME280;61511;49.286;9.700;2022-07-01T05:37:47;97411.22;;;13.45;91.33
73280;BME280;61511;49.286;9.700;2022-07-01T05:40:15;97413.53;;;13.46;91.67
73280;BME280;61511;49.286;9.700;2022-07-01T05:42:43;97421.56;;;13.53;91.54
73280;BME280;61511;49.286;9.700;2022-07-01T05:45:11;97430.44;;;13.39;90.58
73280;BME280;61511;49.286;9.700;2022-07-01T05:47:39;97435.97;;;13.30;90.67
73280;BME280;61511;49.286;9.700;2022-07-01T05:50:08;97435.97;;;13.30;89.93
73280;BME280;61511;49.286;9.700;2022-07-01T05:52:39;97432.75;;;13.32;90.77
73280;BME280;61511;49.286;9.700;2022-07-01T05:55:07;97412.88;;;13.33;91.76
73280;BME280;61511;49.286;9.700;2022-07-01T05:57:35;97419.50;;;13.36;91.22
73280;BME280;61511;49.286;9.700;2022-07-01T06:00:04;97419.03;;;13.37;89.54
73280;BME280;61511;49.286;9.700;2022-07-01T06:02:36;97421.69;;;13.41;90.60
73280;BME280;61511;49.286;9.700;2022-07-01T06:05:07;97414.47;;;13.43;90.46
73280;BME280;61511;49.286;9.700;2022-07-01T06:07:38;97419.53;;;13.45;89.92
73280;BME280;61511;49.286;9.700;2022-07-01T06:10:07;97422.47;;;13.41;91.16
73280;BME280;61511;49.286;9.700;2022-07-01T06:12:37;97433.28;;;13.48;91.70
73280;BME280;61511;49.286;9.700;2022-07-01T06:15:06;97429.72;;;13.48;91.01
73280;BME280;61511;49.286;9.700;2022-07-01T06:17:36;97430.34;;;13.52;90.13
73280;BME280;61511;49.286;9.700;2022-07-01T06:20:04;97428.19;;;13.56;90.79
73280;BME280;61511;49.286;9.700;2022-07-01T06:22:32;97428.38;;;13.61;90.26
73280;BME280;61511;49.286;9.700;2022-07-01T06:25:03;97414.50;;;13.61;90.44
73280;BME280;61511;49.286;9.700;2022-07-01T06:27:31;97422.50;;;13.59;91.08
73280;BME280;61511;49.286;9.700;2022-07-01T06:29:59;97423.59;;;13.53;90.86
73280;BME280;61511;49.286;9.700;2022-07-01T06:32:27;97428.97;;;13.56;89.82
73280;BME280;61511;49.286;9.700;2022-07-01T06:34:55;97437.44;;;13.44;91.27
73280;BME280;61511;49.286;9.700;2022-07-01T06:37:23;97450.47;;;13.34;89.55
73280;BME280;61511;49.286;9.700;2022-07-01T06:39:51;97448.34;;;13.38;90.60
73280;BME280;61511;49.286;9.700;2022-07-01T06:42:20;97441.50;;;13.30;91.25
73280;BME280;61511;49.286;9.700;2022-07-01T06:44:49;97448.72;;;13.28;90.91
73280;BME280;61511;49.286;9.700;2022-07-01T06:47:18;97464.28;;;13.25;91.02
73280;BME280;61511;49.286;9.700;2022-07-01T06:49:46;97463.84;;;13.27;89.75
73280;BME280;61511;49.286;9.700;2022-07-01T06:52:20;97467.41;;;13.27;90.96
73280;BME280;61511;49.286;9.700;2022-07-01T06:54:48;97454.44;;;13.24;90.17
73280;BME280;61511;49.286;9.700;2022-07-01T06:57:16;97450.75;;;13.27;91.82
73280;BME280;61511;49.286;9.700;2022-07-01T06:59:46;97448.03;;;13.36;90.50
73280;BME280;61511;49.286;9.700;2022-07-01T07:02:15;97444.47;;;13.36;91.75
73280;BME280;61511;49.286;9.700;2022-07-01T07:04:43;97441.06;;;13.32;90.55
73280;BME280;61511;49.286;9.700;2022-07-01T07:07:28;97451.69;;;13.33;91.76
73280;BME280;61511;49.286;9.700;2022-07-01T07:09:56;97446.00;;;13.37;91.89
73280;BME280;61511;49.286;9.700;2022-07-01T07:12:24;97449.84;;;13.39;90.91
73280;BME280;61511;49.286;9.700;2022-07-01T07:14:54;97446.66;;;13.41;91.60
73280;BME280;61511;49.286;9.700;2022-07-01T07:17:22;97455.56;;;13.36;90.36
73280;BME280;61511;49.286;9.700;2022-07-01T07:19:50;97468.34;;;13.33;89.98
73280;BME280;61511;49.286;9.700;2022-07-01T07:22:18;97464.47;;;13.31;90.68
73280;BME280;61511;49.286;9.700;2022-07-01T07:24:46;97474.00;;;13.30;90.58
73280;BME280;61511;49.286;9.700;2022-07-01T07:27:14;97479.53;;;13.30;90.29
73280;BME280;61511;49.286;9.700;2022-07-01T07:29:42;97484.63;;;13.22;90.39
73280;BME280;61511;49.286;9.700;2022-07-01T07:32:11;97489.28;;;13.34;91.84
73280;BME280;61511;49.286;9.700;2022-07-01T07:34:40;97494.34;;;13.27;91.22
73280;BME280;61511;49.286;9.700;2022-07-01T07:37:08;97504.69;;;13.35;91.21
73280;BME280;61511;49.286;9.700;2022-07-01T07:39:36;97505.84;;;13.25;90.02
73280;BME280;61511;49.286;9.700;2022-07-01T07:42:04;97511.13;;;13.32;90.92
73280;BME280;61511;49.286;9.700;2022-07-01T07:44:32;97505.31;;;13.39;90.91
73280;BME280;61511;49.286;9.700;2022-07-01T07:47:01;97515.66;;;13.39;90.82
73280;BME280;61511;49.286;9.700;2022-07-01T07:49:30;97521.69;;;13.46;91.18
73280;BME280;61511;49.286;9.700;2022-07-01T07:51:58;97517.56;;;13.51;89.90
73280;BME280;61511;49.286;9.700;2022-07-01T07:54:26;97510.66;;;13.55;89.79
73280;BME280;61511;49.286;9.700;2022-07-01T07:56:54;97509.41;;;13.56;88.64
73280;BME280;61511;49.286;9.700;2022-07-01T07:59:22;97508.34;;;13.63;88.34
73280;BME280;61511;49.286;9.700;2022-07-01T08:01:50;97512.22;;;13.65;88.73
73280;BME280;61511;49.286;9.700;2022-07-01T08:04:18;97510.91;;;13.79;89.34
73280;BME280;61511;49.286;9.700;2022-07-01T08:06:48;97505.06;;;13.86;89.45
73280;BME280;61511;49.286;9.700;2022-07-01T08:09:16;97502.44;;;13.92;89.57
73280;BME280;61511;49.286;9.700;2022-07-01T08:11:45;97505.22;;;13.92;89.25
73280;BME280;61511;49.286;9.700;2022-07-01T08:14:13;97523.09;;;13.82;89.14
73280;BME280;61511;49.286;9.700;2022-07-01T08:16:45;97524.91;;;13.76;88.44
73280;BME280;61511;49.286;9.700;2022-07-01T08:19:13;97526.91;;;13.75;88.56
73280;BME280;61511;49.286;9.700;2022-07-01T08:21:41;97520.94;;;13.86;89.66
73280;BME280;61511;49.286;9.700;2022-07-01T08:24:11;97521.13;;;14.00;87.96
73280;BME280;61511;49.286;9.700;2022-07-01T08:26:39;97528.44;;;14.25;87.94
73280;BME280;61511;49.286;9.700;2022-07-01T08:29:07;97537.28;;;14.32;87.81
73280;BME280;61511;49.286;9.700;2022-07-01T08:31:35;97544.00;;;14.22;87.64
73280;BME280;61511;49.286;9.700;2022-07-01T08:34:03;97538.31;;;14.26;87.47
73280;BME280;61511;49.286;9.700;2022-07-01T08:36:31;97535.97;;;14.24;86.09
73280;BME280;61511;49.286;9.700;2022-07-01T08:38:59;97546.19;;;14.27;88.89
73280;BME280;61511;49.286;9.700;2022-07-01T08:41:28;97546.97;;;14.28;87.75
73280;BME280;61511;49.286;9.700;2022-07-01T08:43:56;97552.19;;;14.26;87.88
73280;BME280;61511;49.286;9.700;2022-07-01T08:46:25;97554.97;;;14.26;89.05
73280;BME280;61511;49.286;9.700;2022-07-01T08:48:53;97568.56;;;14.24;88.21
73280;BME280;61511;49.286;9.700;2022-07-01T08:51:22;97570.53;;;14.14;88.20
73280;BME280;61511;49.286;9.700;2022-07-01T08:53:50;97572.72;;;14.19;88.81
73280;BME280;61511;49.286;9.700;2022-07-01T08:56:18;97565.28;;;14.16;86.27
73280;BME280;61511;49.286;9.700;2022-07-01T08:59:05;97563.75;;;14.24;88.94
73280;BME280;61511;49.286;9.700;2022-07-01T09:01:33;97574.72;;;14.28;89.51
73280;BME280;61511;49.286;9.700;2022-07-01T09:04:13;97573.50;;;14.29;89.15
73280;BME280;61511;49.286;9.700;2022-07-01T09:06:43;97558.84;;;14.28;88.70
73280;BME280;61511;49.286;9.700;2022-07-01T09:09:11;97571.31;;;14.24;88.14
73280;BME280;61511;49.286;9.700;2022-07-01T09:11:44;97579.16;;;14.16;88.52
73280;BME280;61511;49.286;9.700;2022-07-01T09:14:15;97574.50;;;14.04;88.85
73280;BME280;61511;49.286;9.700;2022-07-01T09:16:46;97571.22;;;13.97;88.53
73280;BME280;61511;49.286;9.700;2022-07-01T09:19:19;97575.56;;;13.98;88.59
73280;BME280;61511;49.286;9.700;2022-07-01T09:21:47;97585.38;;;13.90;88.76
73280;BME280;61511;49.286;9.700;2022-07-01T09:24:26;97596.47;;;13.90;88.71
73280;BME280;61511;49.286;9.700;2022-07-01T09:26:56;97601.09;;;13.84;89.56
73280;BME280;61511;49.286;9.700;2022-07-01T09:29:30;97590.94;;;13.90;89.81
73280;BME280;61511;49.286;9.700;2022-07-01T09:32:04;97581.13;;;14.07;90.66
73280;BME280;61511;49.286;9.700;2022-07-01T09:34:33;97594.91;;;14.19;89.44
73280;BME280;61511;49.286;9.700;2022-07-01T09:37:03;97604.94;;;14.17;88.25
73280;BME280;61511;49.286;9.700;2022-07-01T09:39:41;97595.50;;;14.14;89.34
73280;BME280;61511;49.286;9.700;2022-07-01T09:42:09;97605.81;;;14.05;88.20
73280;BME280;61511;49.286;9.700;2022-07-01T09:44:53;97602.00;;;13.81;88.13
73280;BME280;61511;49.286;9.700;2022-07-01T09:47:28;97620.84;;;13.86;90.07
73280;BME280;61511;49.286;9.700;2022-07-01T09:49:57;97608.91;;;13.76;88.38
73280;BME280;61511;49.286;9.700;2022-07-01T09:52:25;97609.16;;;13.91;90.80
73280;BME280;61511;49.286;9.700;2022-07-01T09:55:03;97600.50;;;13.89;90.31
73280;BME280;61511;49.286;9.700;2022-07-01T09:57:31;97598.84;;;14.00;90.36
73280;BME280;61511;49.286;9.700;2022-07-01T10:00:03;97582.38;;;13.75;89.19
73280;BME280;61511;49.286;9.700;2022-07-01T10:02:33;97581.78;;;13.80;88.21
73280;BME280;61511;49.286;9.700;2022-07-01T10:05:05;97583.56;;;13.96;90.37
73280;BME280;61511;49.286;9.700;2022-07-01T10:07:42;97573.44;;;14.11;89.19
73280;BME280;61511;49.286;9.700;2022-07-01T10:10:26;97586.31;;;14.26;87.49
73280;BME280;61511;49.286;9.700;2022-07-01T10:12:56;97582.56;;;14.20;88.23
73280;BME280;61511;49.286;9.700;2022-07-01T10:15:27;97602.44;;;14.10;88.92
73280;BME280;61511;49.286;9.700;2022-07-01T10:17:56;97618.63;;;14.11;89.30
73280;BME280;61511;49.286;9.700;2022-07-01T10:20:26;97622.31;;;14.08;88.16
73280;BME280;61511;49.286;9.700;2022-07-01T10:23:01;97624.50;;;14.13;89.77
73280;BME280;61511;49.286;9.700;2022-07-01T10:25:32;97627.28;;;14.13;88.17
73280;BME280;61511;49.286;9.700;2022-07-01T10:28:24;97619.09;;;14.10;87.47
73280;BME280;61511;49.286;9.700;2022-07-01T10:30:57;97612.91;;;14.15;88.42
73280;BME280;61511;49.286;9.700;2022-07-01T10:33:34;97617.53;;;14.09;87.59
73280;BME280;61511;49.286;9.700;2022-07-01T10:36:04;97632.63;;;14.08;88.66
73280;BME280;61511;49.286;9.700;2022-07-01T10:38:32;97643.13;;;14.04;87.90
73280;BME280;61511;49.286;9.700;2022-07-01T10:41:00;97639.72;;;14.00;89.09
73280;BME280;61511;49.286;9.700;2022-07-01T10:43:37;97636.78;;;14.03;89.90
73280;BME280;61511;49.286;9.700;2022-07-01T10:46:10;97638.66;;;14.06;89.19
73280;BME280;61511;49.286;9.700;2022-07-01T10:48:38;97628.53;;;14.12;90.53
73280;BME280;61511;49.286;9.700;2022-07-01T10:51:05;97619.13;;;14.19;88.18
73280;BME280;61511;49.286;9.700;2022-07-01T10:53:45;97613.25;;;14.17;87.25
73280;BME280;61511;49.286;9.700;2022-07-01T10:56:37;97613.94;;;14.30;89.42
73280;BME280;61511;49.286;9.700;2022-07-01T10:59:06;97623.53;;;14.38;89.02
73280;BME280;61511;49.286;9.700;2022-07-01T11:01:36;97643.28;;;14.40;88.79
73280;BME280;61511;49.286;9.700;2022-07-01T11:04:04;97643.72;;;14.39;87.37
73280;BME280;61511;49.286;9.700;2022-07-01T11:06:32;97637.28;;;14.51;87.83
73280;BME280;61511;49.286;9.700;2022-07-01T11:09:07;97632.06;;;14.53;84.74
73280;BME280;61511;49.286;9.700;2022-07-01T11:11:39;97640.44;;;14.80;86.72
73280;BME280;61511;49.286;9.700;2022-07-01T11:14:08;97651.09;;;14.81;85.27
73280;BME280;61511;49.286;9.700;2022-07-01T11:16:38;97660.97;;;14.73;85.73
73280;BME280;61511;49.286;9.700;2022-07-01T11:19:07;97667.34;;;14.83;87.55
73280;BME280;61511;49.286;9.700;2022-07-01T11:21:35;97675.47;;;14.68;84.75
73280;BME280;61511;49.286;9.700;2022-07-01T11:24:08;97683.00;;;14.59;85.06
73280;BME280;61511;49.286;9.700;2022-07-01T11:26:36;97680.72;;;14.66;85.40
73280;BME280;61511;49.286;9.700;2022-07-01T11:29:04;97672.09;;;14.73;86.74
73280;BME280;61511;49.286;9.700;2022-07-01T11:31:32;97665.63;;;14.85;86.68
73280;BME280;61511;49.286;9.700;2022-07-01T11:34:03;97659.13;;;14.88;87.59
73280;BME280;61511;49.286;9.700;2022-07-01T11:36:31;97661.16;;;14.97;84.82
73280;BME280;61511;49.286;9.700;2022-07-01T11:39:17;97663.50;;;15.08;83.33
73280;BME280;61511;49.286;9.700;2022-07-01T11:41:55;97660.59;;;15.56;84.66
73280;BME280;61511;49.286;9.700;2022-07-01T11:44:32;97662.88;;;15.85;79.05
73280;BME280;61511;49.286;9.700;2022-07-01T11:47:01;97667.31;;;15.92;79.46
73280;BME280;61511;49.286;9.700;2022-07-01T11:49:31;97662.53;;;15.83;78.69
73280;BME280;61511;49.286;9.700;2022-07-01T11:52:00;97672.91;;;15.74;80.74
73280;BME280;61511;49.286;9.700;2022-07-01T11:54:29;97663.19;;;15.78;81.70
73280;BME280;61511;49.286;9.700;2022-07-01T11:57:07;97665.66;;;15.76;82.74
73280;BME280;61511;49.286;9.700;2022-07-01T11:59:36;97671.41;;;15.63;80.60
73280;BME280;61511;49.286;9.700;2022-07-01T12:02:07;97658.44;;;15.51;79.78
73280;BME280;61511;49.286;9.700;2022-07-01T12:04:39;97668.44;;;15.67;81.45
73280;BME280;61511;49.286;9.700;2022-07-01T12:07:09;97660.41;;;15.78;82.40
73280;BME280;61511;49.286;9.700;2022-07-01T12:09:38;97653.59;;;16.21;81.37
73280;BME280;61511;49.286;9.700;2022-07-01T12:12:15;97651.34;;;16.43;79.38
73280;BME280;61511;49.286;9.700;2022-07-01T12:14:49;97655.50;;;16.80;78.14
73280;BME280;61511;49.286;9.700;2022-07-01T12:17:19;97652.00;;;17.18;77.19
73280;BME280;61511;49.286;9.700;2022-07-01T12:19:50;97648.88;;;17.93;76.19
73280;BME280;61511;49.286;9.700;2022-07-01T12:22:20;97649.97;;;18.79;77.73
73280;BME280;61511;49.286;9.700;2022-07-01T12:24:51;97650.69;;;19.81;70.45
73280;BME280;61511;49.286;9.700;2022-07-01T12:27:20;97654.53;;;19.57;67.07
73280;BME280;61511;49.286;9.700;2022-07-01T12:29:51;97661.81;;;18.54;63.93
73280;BME280;61511;49.286;9.700;2022-07-01T12:32:21;97661.31;;;18.41;70.32
73280;BME280;61511;49.286;9.700;2022-07-01T12:34:53;97664.50;;;18.34;70.18
73280;BME280;61511;49.286;9.700;2022-07-01T12:37:28;97656.47;;;17.92;69.96
73280;BME280;61511;49.286;9.700;2022-07-01T12:39:58;97662.91;;;17.31;72.27
73280;BME280;61511;49.286;9.700;2022-07-01T12:42:28;97660.47;;;17.24;72.79
73280;BME280;61511;49.286;9.700;2022-07-01T12:44:58;97665.19;;;17.32;72.65
73280;BME280;61511;49.286;9.700;2022-07-01T12:47:27;97665.19;;;18.29;73.55
73280;BME280;61511;49.286;9.700;2022-07-01T12:50:13;97664.06;;;18.21;66.10
73280;BME280;61511;49.286;9.700;2022-07-01T12:52:43;97669.75;;;18.12;69.20
73280;BME280;61511;49.286;9.700;2022-07-01T12:55:15;97670.03;;;17.99;70.91
73280;BME280;61511;49.286;9.700;2022-07-01T12:57:43;97660.50;;;17.91;68.19
73280;BME280;61511;49.286;9.700;2022-07-01T13:00:12;97672.06;;;17.84;68.35
73280;BME280;61511;49.286;9.700;2022-07-01T13:02:40;97671.69;;;17.77;69.15
73280;BME280;61511;49.286;9.700;2022-07-01T13:05:09;97660.41;;;17.86;66.76
73280;BME280;61511;49.286;9.700;2022-07-01T13:07:38;97663.78;;;17.90;69.33
73280;BME280;61511;49.286;9.700;2022-07-01T13:10:11;97668.31;;;17.49;69.64
73280;BME280;61511;49.286;9.700;2022-07-01T13:12:39;97668.56;;;17.22;69.94
73280;BME280;61511;49.286;9.700;2022-07-01T13:15:08;97667.63;;;17.25;74.91
73280;BME280;61511;49.286;9.700;2022-07-01T13:17:36;97663.28;;;17.24;73.55